sensor_id;sensor_type;location;lat;lon;timestamp;P1;durP1;ratioP1;P2;durP2;ratioP2
57281;SDS011;43129;52.628;10.098;2024-01-11T00:00:49;30.80;;;13.48;;
57281;SDS011;43129;52.628;10.098;2024-01-11T00:03:15;34.60;;;13.23;;
57281;SDS011;43129;52.628;10.098;2024-01-11T00:05:40;32.00;;;13.57;;
57281;SDS011;43129;52.628;10.098;2024-01-11T00:08:06;38.72;;;14.52;;
57281;SDS011;43129;52.628;10.098;2024-01-11T00:10:32;35.65;;;14.10;;
57281;SDS011;43129;52.628;10.098;2024-01-11T00:12:58;37.75;;;14.20;;
57281;SDS011;43129;52.628;10.098;2024-01-11T00:15:26;33.90;;;13.75;;
57281;SDS011;43129;52.628;10.098;2024-01-11T00:17:54;39.10;;;15.60;;
57281;SDS011;43129;52.628;10.098;2024-01-11T00:20:22;35.30;;;14.52;;
57281;SDS011;43129;52.628;10.098;2024-01-11T00:22:47;37.22;;;14.77;;
57281;SDS011;43129;52.628;10.098;2024-01-11T00:25:13;59.13;;;21.77;;
57281;SDS011;43129;52.628;10.098;2024-01-11T00:27:43;41.95;;;15.98;;
57281;SDS011;43129;52.628;10.098;2024-01-11T00:30:11;44.60;;;16.17;;
57281;SDS011;43129;52.628;10.098;2024-01-11T00:32:39;38.83;;;15.38;;
57281;SDS011;43129;52.628;10.098;2024-01-11T00:35:07;34.85;;;14.02;;
57281;SDS011;43129;52.628;10.098;2024-01-11T00:37:33;48.10;;;18.77;;
57281;SDS011;43129;52.628;10.098;2024-01-11T00:40:01;39.95;;;15.75;;
57281;SDS011;43129;52.628;10.098;2024-01-11T00:42:29;41.80;;;16.80;;
57281;SDS011;43129;52.628;10.098;2024-01-11T00:44:54;42.25;;;15.27;;
57281;SDS011;43129;52.628;10.098;2024-01-11T00:47:22;42.78;;;17.08;;
57281;SDS011;43129;52.628;10.098;2024-01-11T00:49:51;45.30;;;16.60;;
57281;SDS011;43129;52.628;10.098;2024-01-11T00:52:17;37.92;;;15.35;;
57281;SDS011;43129;52.628;10.098;2024-01-11T00:54:43;40.20;;;15.73;;
57281;SDS011;43129;52.628;10.098;2024-01-11T00:57:08;41.45;;;15.10;;
57281;SDS011;43129;52.628;10.098;2024-01-11T00:59:34;35.75;;;14.63;;
57281;SDS011;43129;52.628;10.098;2024-01-11T01:02:00;38.65;;;15.27;;
57281;SDS011;43129;52.628;10.098;2024-01-11T01:04:25;39.45;;;16.17;;
57281;SDS011;43129;52.628;10.098;2024-01-11T01:06:53;37.35;;;15.43;;
57281;SDS011;43129;52.628;10.098;2024-01-11T01:09:19;43.58;;;15.65;;
57281;SDS011;43129;52.628;10.098;2024-01-11T01:11:44;40.65;;;15.63;;
57281;SDS011;43129;52.628;10.098;2024-01-11T01:14:12;39.72;;;15.98;;
57281;SDS011;43129;52.628;10.098;2024-01-11T01:16:40;40.72;;;16.65;;
57281;SDS011;43129;52.628;10.098;2024-01-11T01:19:09;45.78;;;16.38;;
57281;SDS011;43129;52.628;10.098;2024-01-11T01:21:37;43.70;;;17.05;;
57281;SDS011;43129;52.628;10.098;2024-01-11T01:24:02;47.50;;;16.30;;
57281;SDS011;43129;52.628;10.098;2024-01-11T01:26:30;44.97;;;17.42;;
57281;SDS011;43129;52.628;10.098;2024-01-11T01:28:56;42.63;;;16.05;;
57281;SDS011;43129;52.628;10.098;2024-01-11T01:31:22;45.00;;;16.55;;
57281;SDS011;43129;52.628;10.098;2024-01-11T01:33:47;43.22;;;15.98;;
57281;SDS011;43129;52.628;10.098;2024-01-11T01:36:13;47.70;;;17.95;;
57281;SDS011;43129;52.628;10.098;2024-01-11T01:38:38;45.88;;;17.60;;
57281;SDS011;43129;52.628;10.098;2024-01-11T01:41:06;71.60;;;25.58;;
57281;SDS011;43129;52.628;10.098;2024-01-11T01:43:35;57.10;;;21.98;;
57281;SDS011;43129;52.628;10.098;2024-01-11T01:46:05;45.17;;;16.80;;
57281;SDS011;43129;52.628;10.098;2024-01-11T01:48:31;44.95;;;15.73;;
57281;SDS011;43129;52.628;10.098;2024-01-11T01:50:57;43.47;;;15.80;;
57281;SDS011;43129;52.628;10.098;2024-01-11T01:53:23;40.58;;;14.68;;
57281;SDS011;43129;52.628;10.098;2024-01-11T01:55:53;41.50;;;15.27;;
57281;SDS011;43129;52.628;10.098;2024-01-11T01:58:19;45.50;;;16.13;;
57281;SDS011;43129;52.628;10.098;2024-01-11T02:00:45;39.83;;;15.95;;
57281;SDS011;43129;52.628;10.098;2024-01-11T02:03:14;36.72;;;14.85;;
57281;SDS011;43129;52.628;10.098;2024-01-11T02:05:40;45.95;;;18.15;;
57281;SDS011;43129;52.628;10.098;2024-01-11T02:08:07;43.30;;;16.17;;
57281;SDS011;43129;52.628;10.098;2024-01-11T02:10:36;42.25;;;16.95;;
57281;SDS011;43129;52.628;10.098;2024-01-11T02:13:02;46.42;;;17.17;;
57281;SDS011;43129;52.628;10.098;2024-01-11T02:15:30;41.42;;;15.73;;
57281;SDS011;43129;52.628;10.098;2024-01-11T02:17:59;44.65;;;15.40;;
57281;SDS011;43129;52.628;10.098;2024-01-11T02:20:24;43.28;;;15.20;;
57281;SDS011;43129;52.628;10.098;2024-01-11T02:22:52;38.88;;;14.63;;
57281;SDS011;43129;52.628;10.098;2024-01-11T02:25:21;41.95;;;15.18;;
57281;SDS011;43129;52.628;10.098;2024-01-11T02:27:50;33.95;;;13.43;;
57281;SDS011;43129;52.628;10.098;2024-01-11T02:30:16;35.33;;;13.23;;
57281;SDS011;43129;52.628;10.098;2024-01-11T02:32:45;38.28;;;14.18;;
57281;SDS011;43129;52.628;10.098;2024-01-11T02:35:15;36.75;;;13.15;;
57281;SDS011;43129;52.628;10.098;2024-01-11T02:37:44;37.05;;;13.82;;
57281;SDS011;43129;52.628;10.098;2024-01-11T02:40:11;37.70;;;14.68;;
57281;SDS011;43129;52.628;10.098;2024-01-11T02:42:40;33.60;;;12.68;;
57281;SDS011;43129;52.628;10.098;2024-01-11T02:45:08;37.67;;;14.20;;
57281;SDS011;43129;52.628;10.098;2024-01-11T02:47:37;36.88;;;12.75;;
57281;SDS011;43129;52.628;10.098;2024-01-11T02:50:03;43.92;;;15.20;;
57281;SDS011;43129;52.628;10.098;2024-01-11T02:52:29;38.35;;;13.52;;
57281;SDS011;43129;52.628;10.098;2024-01-11T02:54:55;33.67;;;13.43;;
57281;SDS011;43129;52.628;10.098;2024-01-11T02:57:25;33.65;;;14.27;;
57281;SDS011;43129;52.628;10.098;2024-01-11T02:59:51;38.63;;;14.15;;
57281;SDS011;43129;52.628;10.098;2024-01-11T03:02:16;39.92;;;14.88;;
57281;SDS011;43129;52.628;10.098;2024-01-11T03:04:42;38.67;;;13.73;;
57281;SDS011;43129;52.628;10.098;2024-01-11T03:07:10;38.85;;;15.48;;
57281;SDS011;43129;52.628;10.098;2024-01-11T03:09:38;38.83;;;15.13;;
57281;SDS011;43129;52.628;10.098;2024-01-11T03:12:06;43.75;;;16.88;;
57281;SDS011;43129;52.628;10.098;2024-01-11T03:14:34;48.75;;;17.23;;
57281;SDS011;43129;52.628;10.098;2024-01-11T03:16:59;41.92;;;17.27;;
57281;SDS011;43129;52.628;10.098;2024-01-11T03:19:26;43.08;;;16.00;;
57281;SDS011;43129;52.628;10.098;2024-01-11T03:21:55;39.83;;;16.08;;
57281;SDS011;43129;52.628;10.098;2024-01-11T03:24:20;41.40;;;15.30;;
57281;SDS011;43129;52.628;10.098;2024-01-11T03:26:48;43.95;;;15.35;;
57281;SDS011;43129;52.628;10.098;2024-01-11T03:29:16;42.65;;;16.23;;
57281;SDS011;43129;52.628;10.098;2024-01-11T03:31:41;52.90;;;19.35;;
57281;SDS011;43129;52.628;10.098;2024-01-11T03:34:09;55.53;;;21.42;;
57281;SDS011;43129;52.628;10.098;2024-01-11T03:36:38;55.05;;;20.65;;
57281;SDS011;43129;52.628;10.098;2024-01-11T03:39:06;49.47;;;18.67;;
57281;SDS011;43129;52.628;10.098;2024-01-11T03:41:34;50.65;;;17.15;;
57281;SDS011;43129;52.628;10.098;2024-01-11T03:43:59;49.63;;;17.23;;
57281;SDS011;43129;52.628;10.098;2024-01-11T03:46:25;46.53;;;16.33;;
57281;SDS011;43129;52.628;10.098;2024-01-11T03:48:51;43.15;;;15.48;;
57281;SDS011;43129;52.628;10.098;2024-01-11T03:51:16;45.38;;;16.42;;
57281;SDS011;43129;52.628;10.098;2024-01-11T03:53:42;44.80;;;15.82;;
57281;SDS011;43129;52.628;10.098;2024-01-11T03:56:10;46.70;;;16.42;;
57281;SDS011;43129;52.628;10.098;2024-01-11T03:58:38;46.30;;;16.00;;
57281;SDS011;43129;52.628;10.098;2024-01-11T04:01:06;47.22;;;15.80;;
57281;SDS011;43129;52.628;10.098;2024-01-11T04:03:35;49.10;;;15.10;;
57281;SDS011;43129;52.628;10.098;2024-01-11T04:06:03;46.72;;;16.40;;
57281;SDS011;43129;52.628;10.098;2024-01-11T04:08:29;43.72;;;15.63;;
57281;SDS011;43129;52.628;10.098;2024-01-11T04:10:54;51.10;;;18.02;;
57281;SDS011;43129;52.628;10.098;2024-01-11T04:13:20;49.35;;;17.55;;
57281;SDS011;43129;52.628;10.098;2024-01-11T04:15:50;47.15;;;16.23;;
57281;SDS011;43129;52.628;10.098;2024-01-11T04:18:24;33.22;;;11.73;;
57281;SDS011;43129;52.628;10.098;2024-01-11T04:20:54;46.33;;;16.55;;
57281;SDS011;43129;52.628;10.098;2024-01-11T04:23:19;47.67;;;16.23;;
57281;SDS011;43129;52.628;10.098;2024-01-11T04:25:45;49.10;;;17.17;;
57281;SDS011;43129;52.628;10.098;2024-01-11T04:28:18;53.47;;;18.70;;
57281;SDS011;43129;52.628;10.098;2024-01-11T04:30:44;58.42;;;19.67;;
57281;SDS011;43129;52.628;10.098;2024-01-11T04:33:10;49.65;;;18.50;;
57281;SDS011;43129;52.628;10.098;2024-01-11T04:35:38;61.50;;;19.98;;
57281;SDS011;43129;52.628;10.098;2024-01-11T04:38:04;49.45;;;18.58;;
57281;SDS011;43129;52.628;10.098;2024-01-11T04:40:30;43.70;;;17.15;;
57281;SDS011;43129;52.628;10.098;2024-01-11T04:42:58;49.08;;;17.33;;
57281;SDS011;43129;52.628;10.098;2024-01-11T04:45:24;49.03;;;17.02;;
57281;SDS011;43129;52.628;10.098;2024-01-11T04:47:51;50.53;;;18.25;;
57281;SDS011;43129;52.628;10.098;2024-01-11T04:50:17;48.90;;;17.33;;
57281;SDS011;43129;52.628;10.098;2024-01-11T04:52:45;56.58;;;19.50;;
57281;SDS011;43129;52.628;10.098;2024-01-11T04:55:11;54.28;;;19.52;;
57281;SDS011;43129;52.628;10.098;2024-01-11T04:57:36;54.88;;;19.00;;
57281;SDS011;43129;52.628;10.098;2024-01-11T05:00:04;52.70;;;17.27;;
57281;SDS011;43129;52.628;10.098;2024-01-11T05:02:36;52.42;;;18.10;;
57281;SDS011;43129;52.628;10.098;2024-01-11T05:05:01;49.63;;;16.77;;
57281;SDS011;43129;52.628;10.098;2024-01-11T05:07:27;48.75;;;17.52;;
57281;SDS011;43129;52.628;10.098;2024-01-11T05:09:53;41.30;;;15.75;;
57281;SDS011;43129;52.628;10.098;2024-01-11T05:12:21;41.63;;;15.13;;
57281;SDS011;43129;52.628;10.098;2024-01-11T05:14:46;47.72;;;16.10;;
57281;SDS011;43129;52.628;10.098;2024-01-11T05:17:14;47.22;;;16.35;;
57281;SDS011;43129;52.628;10.098;2024-01-11T05:19:40;45.72;;;16.90;;
57281;SDS011;43129;52.628;10.098;2024-01-11T05:22:05;41.38;;;14.57;;
57281;SDS011;43129;52.628;10.098;2024-01-11T05:24:31;46.92;;;17.30;;
57281;SDS011;43129;52.628;10.098;2024-01-11T05:26:57;39.28;;;15.63;;
57281;SDS011;43129;52.628;10.098;2024-01-11T05:29:25;41.53;;;14.73;;
57281;SDS011;43129;52.628;10.098;2024-01-11T05:31:50;45.33;;;15.57;;
57281;SDS011;43129;52.628;10.098;2024-01-11T05:34:16;43.22;;;15.50;;
57281;SDS011;43129;52.628;10.098;2024-01-11T05:36:42;40.50;;;16.23;;
57281;SDS011;43129;52.628;10.098;2024-01-11T05:39:07;45.70;;;15.95;;
57281;SDS011;43129;52.628;10.098;2024-01-11T05:41:33;37.53;;;14.00;;
57281;SDS011;43129;52.628;10.098;2024-01-11T05:43:58;42.95;;;16.60;;
57281;SDS011;43129;52.628;10.098;2024-01-11T05:46:24;42.13;;;17.83;;
57281;SDS011;43129;52.628;10.098;2024-01-11T05:48:50;50.75;;;16.63;;
57281;SDS011;43129;52.628;10.098;2024-01-11T05:51:20;47.95;;;16.70;;
57281;SDS011;43129;52.628;10.098;2024-01-11T05:53:45;46.28;;;17.42;;
57281;SDS011;43129;52.628;10.098;2024-01-11T05:56:18;45.97;;;17.42;;
57281;SDS011;43129;52.628;10.098;2024-01-11T05:58:47;43.45;;;15.95;;
57281;SDS011;43129;52.628;10.098;2024-01-11T06:01:15;45.67;;;17.30;;
57281;SDS011;43129;52.628;10.098;2024-01-11T06:03:40;45.35;;;18.88;;
57281;SDS011;43129;52.628;10.098;2024-01-11T06:06:08;47.35;;;18.48;;
57281;SDS011;43129;52.628;10.098;2024-01-11T06:08:34;45.97;;;17.10;;
57281;SDS011;43129;52.628;10.098;2024-01-11T06:10:59;42.10;;;15.13;;
57281;SDS011;43129;52.628;10.098;2024-01-11T06:13:29;52.08;;;19.77;;
57281;SDS011;43129;52.628;10.098;2024-01-11T06:15:57;57.30;;;20.65;;
57281;SDS011;43129;52.628;10.098;2024-01-11T06:18:25;43.45;;;16.38;;
57281;SDS011;43129;52.628;10.098;2024-01-11T06:20:52;47.67;;;17.70;;
57281;SDS011;43129;52.628;10.098;2024-01-11T06:23:18;50.53;;;19.30;;
57281;SDS011;43129;52.628;10.098;2024-01-11T06:25:46;44.88;;;17.40;;
57281;SDS011;43129;52.628;10.098;2024-01-11T06:28:12;44.35;;;18.98;;
57281;SDS011;43129;52.628;10.098;2024-01-11T06:30:38;54.25;;;18.58;;
57281;SDS011;43129;52.628;10.098;2024-01-11T06:33:06;49.30;;;16.98;;
57281;SDS011;43129;52.628;10.098;2024-01-11T06:35:31;44.65;;;16.70;;
57281;SDS011;43129;52.628;10.098;2024-01-11T06:37:59;42.00;;;15.65;;
57281;SDS011;43129;52.628;10.098;2024-01-11T06:40:28;42.20;;;16.63;;
57281;SDS011;43129;52.628;10.098;2024-01-11T06:42:55;40.00;;;16.70;;
57281;SDS011;43129;52.628;10.098;2024-01-11T06:45:21;43.13;;;16.05;;
57281;SDS011;43129;52.628;10.098;2024-01-11T06:47:48;46.97;;;21.15;;
57281;SDS011;43129;52.628;10.098;2024-01-11T06:50:16;46.25;;;17.27;;
57281;SDS011;43129;52.628;10.098;2024-01-11T06:52:41;42.85;;;16.63;;
57281;SDS011;43129;52.628;10.098;2024-01-11T06:55:08;42.42;;;15.93;;
57281;SDS011;43129;52.628;10.098;2024-01-11T06:57:36;37.83;;;15.25;;
57281;SDS011;43129;52.628;10.098;2024-01-11T07:00:01;36.92;;;15.88;;
57281;SDS011;43129;52.628;10.098;2024-01-11T07:02:32;43.58;;;16.67;;
57281;SDS011;43129;52.628;10.098;2024-01-11T07:04:57;42.03;;;15.93;;
57281;SDS011;43129;52.628;10.098;2024-01-11T07:07:26;48.53;;;16.63;;
57281;SDS011;43129;52.628;10.098;2024-01-11T07:09:52;46.10;;;15.95;;
57281;SDS011;43129;52.628;10.098;2024-01-11T07:12:20;63.10;;;22.42;;
57281;SDS011;43129;52.628;10.098;2024-01-11T07:14:48;57.35;;;20.45;;
57281;SDS011;43129;52.628;10.098;2024-01-11T07:17:16;49.13;;;18.35;;
57281;SDS011;43129;52.628;10.098;2024-01-11T07:19:42;45.35;;;17.25;;
57281;SDS011;43129;52.628;10.098;2024-01-11T07:22:08;49.88;;;17.38;;
57281;SDS011;43129;52.628;10.098;2024-01-11T07:24:34;41.97;;;16.25;;
57281;SDS011;43129;52.628;10.098;2024-01-11T07:27:05;39.58;;;16.75;;
57281;SDS011;43129;52.628;10.098;2024-01-11T07:29:32;46.13;;;17.65;;
57281;SDS011;43129;52.628;10.098;2024-01-11T07:31:59;44.63;;;19.20;;
57281;SDS011;43129;52.628;10.098;2024-01-11T07:34:25;45.80;;;17.60;;
57281;SDS011;43129;52.628;10.098;2024-01-11T07:36:52;46.17;;;18.05;;
57281;SDS011;43129;52.628;10.098;2024-01-11T07:39:17;40.35;;;17.25;;
57281;SDS011;43129;52.628;10.098;2024-01-11T07:41:47;44.95;;;15.80;;
57281;SDS011;43129;52.628;10.098;2024-01-11T07:44:13;46.10;;;17.20;;
57281;SDS011;43129;52.628;10.098;2024-01-11T07:46:39;44.40;;;16.40;;
57281;SDS011;43129;52.628;10.098;2024-01-11T07:49:05;45.28;;;16.98;;
57281;SDS011;43129;52.628;10.098;2024-01-11T07:51:32;44.22;;;17.35;;
57281;SDS011;43129;52.628;10.098;2024-01-11T07:53:59;53.55;;;20.27;;
57281;SDS011;43129;52.628;10.098;2024-01-11T07:56:25;49.22;;;18.95;;
57281;SDS011;43129;52.628;10.098;2024-01-11T07:58:53;45.92;;;17.80;;
57281;SDS011;43129;52.628;10.098;2024-01-11T08:01:22;48.95;;;19.35;;
57281;SDS011;43129;52.628;10.098;2024-01-11T08:03:47;45.75;;;16.92;;
57281;SDS011;43129;52.628;10.098;2024-01-11T08:06:13;45.08;;;16.67;;
57281;SDS011;43129;52.628;10.098;2024-01-11T08:08:39;61.30;;;21.52;;
57281;SDS011;43129;52.628;10.098;2024-01-11T08:11:06;46.45;;;17.90;;
57281;SDS011;43129;52.628;10.098;2024-01-11T08:13:35;54.67;;;18.92;;
57281;SDS011;43129;52.628;10.098;2024-01-11T08:16:02;47.38;;;17.88;;
57281;SDS011;43129;52.628;10.098;2024-01-11T08:18:32;44.20;;;18.00;;
57281;SDS011;43129;52.628;10.098;2024-01-11T08:20:59;51.17;;;18.80;;
57281;SDS011;43129;52.628;10.098;2024-01-11T08:23:27;76.88;;;25.38;;
57281;SDS011;43129;52.628;10.098;2024-01-11T08:25:53;59.60;;;21.13;;
57281;SDS011;43129;52.628;10.098;2024-01-11T08:28:19;66.10;;;22.65;;
57281;SDS011;43129;52.628;10.098;2024-01-11T08:30:45;64.18;;;23.67;;
57281;SDS011;43129;52.628;10.098;2024-01-11T08:33:11;61.40;;;21.70;;
57281;SDS011;43129;52.628;10.098;2024-01-11T08:35:39;60.30;;;20.23;;
57281;SDS011;43129;52.628;10.098;2024-01-11T08:38:05;62.85;;;19.92;;
57281;SDS011;43129;52.628;10.098;2024-01-11T08:40:31;64.68;;;20.42;;
57281;SDS011;43129;52.628;10.098;2024-01-11T08:42:59;72.90;;;21.65;;
57281;SDS011;43129;52.628;10.098;2024-01-11T08:45:24;76.00;;;23.75;;
57281;SDS011;43129;52.628;10.098;2024-01-11T08:47:50;72.95;;;22.25;;
57281;SDS011;43129;52.628;10.098;2024-01-11T08:50:16;67.93;;;21.60;;
57281;SDS011;43129;52.628;10.098;2024-01-11T08:52:46;67.63;;;22.17;;
57281;SDS011;43129;52.628;10.098;2024-01-11T08:55:12;71.07;;;22.35;;
57281;SDS011;43129;52.628;10.098;2024-01-11T08:57:40;71.65;;;23.75;;
57281;SDS011;43129;52.628;10.098;2024-01-11T09:00:06;76.75;;;23.98;;
57281;SDS011;43129;52.628;10.098;2024-01-11T09:02:32;67.85;;;21.98;;
57281;SDS011;43129;52.628;10.098;2024-01-11T09:04:57;75.00;;;23.90;;
57281;SDS011;43129;52.628;10.098;2024-01-11T09:07:25;81.50;;;24.25;;
57281;SDS011;43129;52.628;10.098;2024-01-11T09:09:53;81.40;;;23.25;;
57281;SDS011;43129;52.628;10.098;2024-01-11T09:12:22;90.40;;;25.90;;
57281;SDS011;43129;52.628;10.098;2024-01-11T09:14:49;75.97;;;23.70;;
57281;SDS011;43129;52.628;10.098;2024-01-11T09:17:15;88.70;;;28.52;;
57281;SDS011;43129;52.628;10.098;2024-01-11T09:19:41;80.25;;;25.45;;
57281;SDS011;43129;52.628;10.098;2024-01-11T09:22:06;66.50;;;21.75;;
57281;SDS011;43129;52.628;10.098;2024-01-11T09:24:35;70.00;;;22.63;;
57281;SDS011;43129;52.628;10.098;2024-01-11T09:27:01;73.65;;;22.83;;
57281;SDS011;43129;52.628;10.098;2024-01-11T09:29:29;70.10;;;22.15;;
57281;SDS011;43129;52.628;10.098;2024-01-11T09:31:54;77.32;;;21.83;;
57281;SDS011;43129;52.628;10.098;2024-01-11T09:34:20;73.15;;;21.13;;
57281;SDS011;43129;52.628;10.098;2024-01-11T09:36:46;68.60;;;21.40;;
57281;SDS011;43129;52.628;10.098;2024-01-11T09:39:13;71.65;;;21.60;;
57281;SDS011;43129;52.628;10.098;2024-01-11T09:41:41;74.95;;;21.60;;
57281;SDS011;43129;52.628;10.098;2024-01-11T09:44:12;66.38;;;21.00;;
57281;SDS011;43129;52.628;10.098;2024-01-11T09:46:38;71.45;;;22.67;;
57281;SDS011;43129;52.628;10.098;2024-01-11T09:49:07;63.97;;;21.70;;
57281;SDS011;43129;52.628;10.098;2024-01-11T09:51:35;61.58;;;20.40;;
57281;SDS011;43129;52.628;10.098;2024-01-11T09:54:10;73.95;;;22.85;;
57281;SDS011;43129;52.628;10.098;2024-01-11T09:56:36;75.80;;;21.05;;
57281;SDS011;43129;52.628;10.098;2024-01-11T09:59:02;63.83;;;21.40;;
57281;SDS011;43129;52.628;10.098;2024-01-11T10:04:02;62.33;;;20.88;;
57281;SDS011;43129;52.628;10.098;2024-01-11T10:06:32;68.82;;;21.55;;
57281;SDS011;43129;52.628;10.098;2024-01-11T10:09:05;62.35;;;22.38;;
57281;SDS011;43129;52.628;10.098;2024-01-11T10:11:31;64.10;;;21.40;;
57281;SDS011;43129;52.628;10.098;2024-01-11T10:13:56;67.28;;;21.67;;
57281;SDS011;43129;52.628;10.098;2024-01-11T10:16:23;72.97;;;20.90;;
57281;SDS011;43129;52.628;10.098;2024-01-11T10:18:49;66.43;;;21.77;;
57281;SDS011;43129;52.628;10.098;2024-01-11T10:21:21;65.15;;;22.40;;
57281;SDS011;43129;52.628;10.098;2024-01-11T10:23:51;71.43;;;22.35;;
57281;SDS011;43129;52.628;10.098;2024-01-11T10:26:17;70.40;;;23.80;;
57281;SDS011;43129;52.628;10.098;2024-01-11T10:28:47;67.97;;;23.80;;
57281;SDS011;43129;52.628;10.098;2024-01-11T10:31:13;57.05;;;20.25;;
57281;SDS011;43129;52.628;10.098;2024-01-11T10:33:43;60.13;;;21.27;;
57281;SDS011;43129;52.628;10.098;2024-01-11T10:36:11;74.85;;;23.85;;
57281;SDS011;43129;52.628;10.098;2024-01-11T10:38:37;66.75;;;21.25;;
57281;SDS011;43129;52.628;10.098;2024-01-11T10:41:05;56.72;;;21.10;;
57281;SDS011;43129;52.628;10.098;2024-01-11T10:43:32;62.35;;;22.38;;
57281;SDS011;43129;52.628;10.098;2024-01-11T10:46:02;70.15;;;22.52;;
57281;SDS011;43129;52.628;10.098;2024-01-11T10:48:31;58.50;;;21.98;;
57281;SDS011;43129;52.628;10.098;2024-01-11T10:51:09;73.18;;;21.92;;
57281;SDS011;43129;52.628;10.098;2024-01-11T10:53:46;78.05;;;22.88;;
57281;SDS011;43129;52.628;10.098;2024-01-11T10:56:13;71.28;;;23.17;;
57281;SDS011;43129;52.628;10.098;2024-01-11T10:58:41;66.53;;;22.70;;
57281;SDS011;43129;52.628;10.098;2024-01-11T11:01:12;66.60;;;22.33;;
57281;SDS011;43129;52.628;10.098;2024-01-11T11:03:38;59.63;;;22.25;;
57281;SDS011;43129;52.628;10.098;2024-01-11T11:06:07;67.18;;;24.02;;
57281;SDS011;43129;52.628;10.098;2024-01-11T11:08:37;64.13;;;22.42;;
57281;SDS011;43129;52.628;10.098;2024-01-11T11:11:07;57.05;;;20.13;;
57281;SDS011;43129;52.628;10.098;2024-01-11T11:13:36;62.65;;;21.33;;
57281;SDS011;43129;52.628;10.098;2024-01-11T11:16:05;65.03;;;23.05;;
57281;SDS011;43129;52.628;10.098;2024-01-11T11:18:32;64.47;;;22.20;;
57281;SDS011;43129;52.628;10.098;2024-01-11T11:21:06;63.90;;;22.65;;
57281;SDS011;43129;52.628;10.098;2024-01-11T11:23:35;62.03;;;22.25;;
57281;SDS011;43129;52.628;10.098;2024-01-11T11:26:02;61.28;;;21.42;;
57281;SDS011;43129;52.628;10.098;2024-01-11T11:28:30;58.22;;;22.08;;
57281;SDS011;43129;52.628;10.098;2024-01-11T11:30:59;60.33;;;22.00;;
57281;SDS011;43129;52.628;10.098;2024-01-11T11:33:27;65.00;;;22.40;;
57281;SDS011;43129;52.628;10.098;2024-01-11T11:35:58;67.15;;;23.33;;
57281;SDS011;43129;52.628;10.098;2024-01-11T11:38:28;66.07;;;22.88;;
57281;SDS011;43129;52.628;10.098;2024-01-11T11:40:56;59.97;;;21.17;;
57281;SDS011;43129;52.628;10.098;2024-01-11T11:43:26;65.82;;;22.92;;
57281;SDS011;43129;52.628;10.098;2024-01-11T11:45:53;70.10;;;22.65;;
57281;SDS011;43129;52.628;10.098;2024-01-11T11:51:07;66.57;;;23.80;;
57281;SDS011;43129;52.628;10.098;2024-01-11T11:53:36;62.83;;;21.20;;
57281;SDS011;43129;52.628;10.098;2024-01-11T11:56:02;64.97;;;24.15;;
57281;SDS011;43129;52.628;10.098;2024-01-11T11:58:31;65.28;;;21.88;;
57281;SDS011;43129;52.628;10.098;2024-01-11T12:00:59;62.85;;;22.17;;
57281;SDS011;43129;52.628;10.098;2024-01-11T12:03:29;91.05;;;33.08;;
57281;SDS011;43129;52.628;10.098;2024-01-11T12:05:55;67.80;;;23.65;;
57281;SDS011;43129;52.628;10.098;2024-01-11T12:08:24;63.67;;;23.25;;
57281;SDS011;43129;52.628;10.098;2024-01-11T12:10:50;59.95;;;22.30;;
57281;SDS011;43129;52.628;10.098;2024-01-11T12:13:17;64.22;;;23.83;;
57281;SDS011;43129;52.628;10.098;2024-01-11T12:15:43;67.30;;;24.75;;
57281;SDS011;43129;52.628;10.098;2024-01-11T12:18:11;66.13;;;22.98;;
57281;SDS011;43129;52.628;10.098;2024-01-11T12:20:37;70.15;;;25.50;;
57281;SDS011;43129;52.628;10.098;2024-01-11T12:23:03;64.85;;;22.70;;
57281;SDS011;43129;52.628;10.098;2024-01-11T12:25:29;65.38;;;23.83;;
57281;SDS011;43129;52.628;10.098;2024-01-11T12:27:56;72.53;;;25.15;;
57281;SDS011;43129;52.628;10.098;2024-01-11T12:30:22;71.00;;;26.35;;
57281;SDS011;43129;52.628;10.098;2024-01-11T12:32:52;75.75;;;28.50;;
57281;SDS011;43129;52.628;10.098;2024-01-11T12:35:19;78.07;;;28.63;;
57281;SDS011;43129;52.628;10.098;2024-01-11T12:40:21;76.60;;;25.52;;
57281;SDS011;43129;52.628;10.098;2024-01-11T12:42:49;87.82;;;30.27;;
57281;SDS011;43129;52.628;10.098;2024-01-11T12:45:15;83.43;;;33.60;;
57281;SDS011;43129;52.628;10.098;2024-01-11T12:47:45;75.57;;;29.40;;
57281;SDS011;43129;52.628;10.098;2024-01-11T12:50:11;92.65;;;33.05;;
57281;SDS011;43129;52.628;10.098;2024-01-11T12:52:40;75.65;;;26.80;;
57281;SDS011;43129;52.628;10.098;2024-01-11T12:55:17;74.05;;;27.65;;
57281;SDS011;43129;52.628;10.098;2024-01-11T12:57:46;76.10;;;25.80;;
57281;SDS011;43129;52.628;10.098;2024-01-11T13:00:14;65.68;;;23.83;;
57281;SDS011;43129;52.628;10.098;2024-01-11T13:02:43;68.95;;;25.25;;
57281;SDS011;43129;52.628;10.098;2024-01-11T13:05:11;62.33;;;23.75;;
57281;SDS011;43129;52.628;10.098;2024-01-11T13:07:36;79.35;;;26.10;;
57281;SDS011;43129;52.628;10.098;2024-01-11T13:10:04;72.28;;;23.45;;
57281;SDS011;43129;52.628;10.098;2024-01-11T13:12:33;66.53;;;23.05;;
57281;SDS011;43129;52.628;10.098;2024-01-11T13:14:58;65.22;;;23.27;;
57281;SDS011;43129;52.628;10.098;2024-01-11T13:17:24;72.55;;;23.63;;
57281;SDS011;43129;52.628;10.098;2024-01-11T13:19:52;71.00;;;24.27;;
57281;SDS011;43129;52.628;10.098;2024-01-11T13:22:18;71.40;;;24.40;;
57281;SDS011;43129;52.628;10.098;2024-01-11T13:24:43;69.15;;;24.75;;
57281;SDS011;43129;52.628;10.098;2024-01-11T13:27:09;67.93;;;24.63;;
57281;SDS011;43129;52.628;10.098;2024-01-11T13:29:35;65.43;;;22.95;;
57281;SDS011;43129;52.628;10.098;2024-01-11T13:32:00;65.75;;;23.90;;
57281;SDS011;43129;52.628;10.098;2024-01-11T13:34:28;73.22;;;24.50;;
57281;SDS011;43129;52.628;10.098;2024-01-11T13:36:54;71.72;;;23.98;;
57281;SDS011;43129;52.628;10.098;2024-01-11T13:39:20;70.60;;;24.20;;
57281;SDS011;43129;52.628;10.098;2024-01-11T13:41:45;68.53;;;25.45;;
57281;SDS011;43129;52.628;10.098;2024-01-11T13:44:14;65.90;;;23.55;;
57281;SDS011;43129;52.628;10.098;2024-01-11T13:46:42;66.60;;;23.90;;
57281;SDS011;43129;52.628;10.098;2024-01-11T13:49:08;73.40;;;24.40;;
57281;SDS011;43129;52.628;10.098;2024-01-11T13:51:34;72.03;;;26.10;;
57281;SDS011;43129;52.628;10.098;2024-01-11T13:54:02;72.30;;;25.67;;
57281;SDS011;43129;52.628;10.098;2024-01-11T13:56:30;72.53;;;25.17;;
57281;SDS011;43129;52.628;10.098;2024-01-11T13:58:58;73.07;;;25.25;;
57281;SDS011;43129;52.628;10.098;2024-01-11T14:01:24;73.40;;;24.90;;
57281;SDS011;43129;52.628;10.098;2024-01-11T14:03:49;71.00;;;25.95;;
57281;SDS011;43129;52.628;10.098;2024-01-11T14:06:17;68.15;;;24.55;;
57281;SDS011;43129;52.628;10.098;2024-01-11T14:08:43;73.50;;;25.00;;
57281;SDS011;43129;52.628;10.098;2024-01-11T14:11:08;74.88;;;27.25;;
57281;SDS011;43129;52.628;10.098;2024-01-11T14:13:34;71.38;;;25.73;;
57281;SDS011;43129;52.628;10.098;2024-01-11T14:16:00;65.28;;;24.52;;